createdAt,value
2022-09-02T00:01:28.438Z,14.99
2022-09-02T00:04:33.095Z,14.97
2022-09-02T00:07:37.806Z,14.93
2022-09-02T00:10:45.119Z,15.30
2022-09-02T00:13:50.553Z,15.45
2022-09-02T00:16:56.096Z,15.86
2022-09-02T00:20:00.698Z,16.07
2022-09-02T00:23:09.249Z,16.19
2022-09-02T00:26:15.330Z,16.81
2022-09-02T00:29:20.220Z,16.93
2022-09-02T00:32:24.849Z,16.99
2022-09-02T00:35:29.645Z,16.93
2022-09-02T00:38:36.752Z,17.06
2022-09-02T00:41:43.316Z,16.84
2022-09-02T00:44:48.262Z,17.12
2022-09-02T00:47:52.907Z,17.39
2022-09-02T00:50:57.470Z,17.94
2022-09-02T00:54:04.528Z,18.60
2022-09-02T00:57:14.444Z,18.58
2022-09-02T01:00:26.274Z,19.33
2022-09-02T01:03:37.343Z,21.18
2022-09-02T01:06:41.910Z,22.19
2022-09-02T01:09:46.882Z,22.94
2022-09-02T01:12:55.992Z,23.26
2022-09-02T01:16:11.561Z,24.13
2022-09-02T01:19:26.103Z,24.52
2022-09-02T01:22:32.676Z,24.94
2022-09-02T01:25:37.864Z,24.15
2022-09-02T01:28:42.311Z,24.45
2022-09-02T01:31:47.219Z,24.81
2022-09-02T01:34:52.145Z,25.20
2022-09-02T01:37:58.517Z,25.56
2022-09-02T01:41:03.135Z,25.97
2022-09-02T01:44:09.051Z,25.61
2022-09-02T01:47:17.700Z,25.80
2022-09-02T01:50:23.825Z,26.41
2022-09-02T01:53:29.968Z,26.62
2022-09-02T01:56:35.637Z,26.36
2022-09-02T01:59:40.529Z,26.35
2022-09-02T02:02:45.082Z,24.84
2022-09-02T02:05:50.047Z,24.87
2022-09-02T02:08:57.162Z,25.09
2022-09-02T02:12:02.116Z,25.10
2022-09-02T02:15:11.788Z,25.33
2022-09-02T02:18:20.992Z,24.94
2022-09-02T02:21:30.584Z,25.04
2022-09-02T02:24:35.513Z,24.59
2022-09-02T02:27:40.906Z,24.81
2022-09-02T02:30:49.419Z,25.07
2022-09-02T02:33:54.371Z,24.16
2022-09-02T02:36:59.363Z,23.66
2022-09-02T02:40:06.806Z,23.46
2022-09-02T02:43:11.338Z,23.93
2022-09-02T02:46:16.406Z,23.39
2022-09-02T02:49:20.995Z,23.45
2022-09-02T02:52:25.595Z,23.12
2022-09-02T02:55:30.891Z,23.59
2022-09-02T02:58:36.376Z,23.60
2022-09-02T03:01:41.091Z,23.53
2022-09-02T03:04:45.998Z,23.32
2022-09-02T03:07:50.948Z,23.29
2022-09-02T03:10:56.905Z,23.39
2022-09-02T03:14:04.226Z,23.17
2022-09-02T03:17:10.263Z,23.16
2022-09-02T03:20:19.535Z,22.96
2022-09-02T03:23:30.310Z,22.94
2022-09-02T03:26:36.161Z,22.91
2022-09-02T03:29:41.303Z,23.04
2022-09-02T03:32:46.172Z,23.19
2022-09-02T03:35:51.938Z,22.94
2022-09-02T03:38:57.710Z,22.72
2022-09-02T03:42:02.400Z,22.40
2022-09-02T03:45:12.644Z,22.12
2022-09-02T03:48:18.697Z,22.29
2022-09-02T03:51:24.690Z,22.47
2022-09-02T03:54:29.535Z,22.40
2022-09-02T03:57:36.351Z,22.54
2022-09-02T04:00:41.075Z,22.71
2022-09-02T04:03:46.001Z,22.59
2022-09-02T04:06:50.801Z,22.54
2022-09-02T04:09:57.232Z,22.51
2022-09-02T04:13:01.907Z,22.37
2022-09-02T04:16:11.695Z,22.52
2022-09-02T04:19:17.128Z,22.34
2022-09-02T04:22:21.915Z,22.59
2022-09-02T04:25:27.755Z,22.27
2022-09-02T04:28:34.229Z,22.25
2022-09-02T04:31:39.509Z,22.30
2022-09-02T04:34:44.105Z,22.46
2022-09-02T04:37:49.997Z,22.32
2022-09-02T04:40:55.647Z,21.98
2022-09-02T04:44:01.329Z,22.00
2022-09-02T04:47:09.555Z,22.27
2022-09-02T04:50:14.590Z,22.31
2022-09-02T04:53:36.178Z,22.42
2022-09-02T04:56:41.029Z,22.42
2022-09-02T04:59:46.227Z,22.41
2022-09-02T05:02:52.355Z,22.43
2022-09-02T05:06:03.930Z,22.40
2022-09-02T05:09:09.901Z,22.50
2022-09-02T05:12:15.831Z,22.24
2022-09-02T05:15:25.948Z,22.64
2022-09-02T05:18:33.280Z,22.46
2022-09-02T05:21:44.542Z,22.54
2022-09-02T05:24:54.110Z,22.31
2022-09-02T05:27:58.688Z,22.43
2022-09-02T05:31:13.442Z,22.65
2022-09-02T05:34:18.880Z,22.59
2022-09-02T05:37:25.919Z,22.58
2022-09-02T05:40:30.929Z,22.43
2022-09-02T05:43:40.633Z,22.36
2022-09-02T05:46:48.869Z,22.46
2022-09-02T05:49:54.932Z,22.64
2022-09-02T05:53:01.312Z,22.44
2022-09-02T05:56:06.981Z,22.30
2022-09-02T05:59:12.669Z,22.50
2022-09-02T06:02:18.300Z,22.41
2022-09-02T06:05:23.317Z,22.37
2022-09-02T06:08:37.238Z,22.56
2022-09-02T06:11:47.498Z,22.61
2022-09-02T06:14:55.275Z,22.58
2022-09-02T06:18:00.694Z,22.59
2022-09-02T06:21:08.292Z,22.57
2022-09-02T06:24:19.017Z,22.38
2022-09-02T06:27:27.741Z,22.64
2022-09-02T06:30:33.749Z,22.48
2022-09-02T06:33:39.042Z,22.53
2022-09-02T06:36:48.945Z,22.66
2022-09-02T06:39:55.923Z,22.46
2022-09-02T06:43:04.558Z,22.30
2022-09-02T06:46:21.731Z,22.31
2022-09-02T06:49:30.049Z,22.36
2022-09-02T06:52:37.061Z,22.19
2022-09-02T06:55:45.213Z,22.25
2022-09-02T06:58:50.097Z,22.15
2022-09-02T07:01:55.199Z,22.03
2022-09-02T07:05:16.162Z,22.11
2022-09-02T07:08:23.956Z,22.02
2022-09-02T07:11:28.914Z,22.03
2022-09-02T07:14:42.349Z,22.20
2022-09-02T07:17:50.445Z,22.01
2022-09-02T07:21:03.878Z,22.18
2022-09-02T07:24:12.506Z,22.09
2022-09-02T07:27:21.148Z,21.95
2022-09-02T07:30:27.687Z,22.08
2022-09-02T07:33:40.556Z,22.03
2022-09-02T07:36:50.085Z,22.01
2022-09-02T07:39:57.495Z,21.88
2022-09-02T07:43:06.175Z,21.82
2022-09-02T07:46:12.196Z,21.76
2022-09-02T07:49:20.860Z,21.66
2022-09-02T07:52:28.513Z,21.61
2022-09-02T07:55:33.907Z,21.54
2022-09-02T07:58:40.109Z,21.64
2022-09-02T08:01:44.757Z,21.55
2022-09-02T08:04:50.025Z,21.65
2022-09-02T08:07:54.783Z,21.54
2022-09-02T08:10:59.830Z,21.43
2022-09-02T08:14:04.601Z,21.32
2022-09-02T08:17:09.402Z,21.31
2022-09-02T08:20:16.031Z,21.45
2022-09-02T08:23:36.046Z,21.37
2022-09-02T08:26:42.120Z,21.21
2022-09-02T08:29:46.837Z,21.20
2022-09-02T08:32:51.533Z,21.20
2022-09-02T08:35:56.273Z,21.06
2022-09-02T08:39:05.283Z,20.90
2022-09-02T08:42:17.242Z,20.92
2022-09-02T08:45:38.602Z,20.77
2022-09-02T08:48:46.506Z,20.80
2022-09-02T08:52:00.995Z,20.49
2022-09-02T08:55:08.794Z,20.51
2022-09-02T08:58:24.048Z,20.19
2022-09-02T09:01:41.004Z,20.33
2022-09-02T09:05:24.688Z,20.17
2022-09-02T09:08:54.585Z,19.63
2022-09-02T09:12:19.521Z,19.84
2022-09-02T09:16:02.371Z,19.46
2022-09-02T09:19:27.136Z,19.35
2022-09-02T09:22:40.648Z,19.22
2022-09-02T09:25:49.206Z,19.17
2022-09-02T09:28:55.889Z,18.93
2022-09-02T09:32:02.155Z,18.72
2022-09-02T09:35:10.384Z,18.83
2022-09-02T09:38:15.833Z,18.69
2022-09-02T09:41:25.532Z,18.71
2022-09-02T09:44:49.118Z,18.71
2022-09-02T09:48:12.876Z,18.65
2022-09-02T09:51:17.577Z,18.54
2022-09-02T09:54:22.146Z,18.50
2022-09-02T09:57:35.500Z,18.28
2022-09-02T10:00:41.594Z,18.11
2022-09-02T10:04:12.133Z,18.27
2022-09-02T10:07:56.055Z,18.12
2022-09-02T10:11:07.415Z,18.12
2022-09-02T10:14:13.174Z,17.84
2022-09-02T10:17:20.851Z,17.94
2022-09-02T10:21:16.580Z,17.86
2022-09-02T10:25:00.033Z,17.78
2022-09-02T10:28:18.517Z,17.56
2022-09-02T10:31:43.788Z,17.41
2022-09-02T10:35:03.446Z,17.53
2022-09-02T10:38:23.383Z,17.43
2022-09-02T10:41:49.279Z,17.27
2022-09-02T10:45:02.768Z,17.36
2022-09-02T10:48:25.653Z,17.08
2022-09-02T10:51:51.414Z,17.30
2022-09-02T10:55:19.805Z,16.91
2022-09-02T10:59:01.874Z,16.85
2022-09-02T11:02:19.242Z,16.90
2022-09-02T11:05:53.246Z,17.10
2022-09-02T11:09:04.179Z,16.82
2022-09-02T11:12:23.822Z,17.01
2022-09-02T11:15:37.883Z,16.98
2022-09-02T11:18:49.100Z,16.98
2022-09-02T11:22:09.315Z,16.85
2022-09-02T11:25:25.294Z,16.87
2022-09-02T11:28:35.961Z,16.83
2022-09-02T11:31:48.707Z,16.64
2022-09-02T11:34:59.984Z,16.77
2022-09-02T11:38:11.800Z,16.75
2022-09-02T11:41:36.806Z,16.68
2022-09-02T11:44:57.200Z,16.64
2022-09-02T11:48:20.715Z,16.41
2022-09-02T11:51:42.230Z,16.23
2022-09-02T11:54:50.672Z,16.48
2022-09-02T11:57:58.841Z,16.56
2022-09-02T12:01:13.868Z,16.62
2022-09-02T12:04:58.529Z,16.32
2022-09-02T12:07:52.623Z,16.31
2022-09-02T12:11:00.941Z,16.59
2022-09-02T12:14:14.601Z,16.51
2022-09-02T12:17:45.605Z,16.31
2022-09-02T12:20:51.371Z,16.36
2022-09-02T12:24:00.091Z,16.27
2022-09-02T12:27:09.269Z,16.07
2022-09-02T12:30:14.706Z,16.11
2022-09-02T12:33:30.725Z,15.91
2022-09-02T12:36:45.471Z,16.08
2022-09-02T12:39:55.964Z,15.98
2022-09-02T12:43:05.374Z,16.04
2022-09-02T12:46:34.581Z,15.96
2022-09-02T12:50:03.327Z,15.82
2022-09-02T12:53:30.763Z,15.59
2022-09-02T12:56:35.685Z,15.58
2022-09-02T12:59:45.516Z,15.44
2022-09-02T13:03:29.896Z,15.54
2022-09-02T13:06:52.975Z,15.46
2022-09-02T13:10:28.052Z,15.23
2022-09-02T13:13:55.674Z,15.24
2022-09-02T13:17:34.986Z,15.24
2022-09-02T13:21:17.086Z,15.22
2022-09-02T13:24:24.892Z,15.27
2022-09-02T13:27:36.928Z,15.28
2022-09-02T13:30:59.571Z,15.26
2022-09-02T13:34:12.357Z,15.16
2022-09-02T13:37:30.499Z,15.42
2022-09-02T13:40:37.870Z,15.47
2022-09-02T13:43:45.800Z,15.28
2022-09-02T13:47:12.384Z,15.05
2022-09-02T13:50:20.903Z,15.22
2022-09-02T13:53:58.986Z,15.26
2022-09-02T13:57:11.400Z,15.18
2022-09-02T14:00:18.259Z,15.23
2022-09-02T14:03:23.443Z,14.94
2022-09-02T14:06:37.037Z,15.16
2022-09-02T14:09:43.181Z,15.04
2022-09-02T14:12:48.923Z,15.19
2022-09-02T14:15:53.523Z,15.18
2022-09-02T14:19:24.685Z,15.27
2022-09-02T14:22:31.911Z,15.21
2022-09-02T14:25:50.332Z,15.26
2022-09-02T14:28:56.115Z,15.24
2022-09-02T14:32:24.011Z,15.32
2022-09-02T14:35:28.826Z,14.66
2022-09-02T14:38:56.799Z,14.95
2022-09-02T14:42:01.729Z,15.07
2022-09-02T14:45:10.564Z,14.90
2022-09-02T14:48:27.504Z,14.94
2022-09-02T14:51:37.971Z,15.21
2022-09-02T14:54:45.403Z,15.22
2022-09-02T14:57:50.269Z,15.26
2022-09-02T15:01:02.117Z,14.95
2022-09-02T15:04:07.590Z,15.03
2022-09-02T15:07:12.207Z,15.05
2022-09-02T15:10:16.987Z,14.68
2022-09-02T15:13:30.346Z,15.18
2022-09-02T15:16:35.092Z,14.92
2022-09-02T15:19:39.806Z,14.86
2022-09-02T15:22:44.589Z,14.97
2022-09-02T15:25:49.206Z,14.96
2022-09-02T15:28:55.388Z,14.68
2022-09-02T15:32:01.102Z,14.70
2022-09-02T15:35:10.074Z,15.19
2022-09-02T15:38:14.803Z,14.70
2022-09-02T15:41:22.119Z,14.67
2022-09-02T15:44:29.445Z,14.11
2022-09-02T15:47:37.118Z,14.23
2022-09-02T15:50:42.161Z,14.38
2022-09-02T15:53:56.912Z,13.95
2022-09-02T15:57:01.946Z,14.02
2022-09-02T16:00:09.671Z,14.41
2022-09-02T16:03:19.303Z,14.39
2022-09-02T16:06:24.028Z,14.56
2022-09-02T16:09:28.399Z,14.48
2022-09-02T16:12:33.498Z,14.39
2022-09-02T16:15:38.160Z,14.41
2022-09-02T16:18:44.174Z,14.29
2022-09-02T16:21:49.563Z,14.39
2022-09-02T16:24:54.296Z,14.50
2022-09-02T16:27:59.109Z,14.23
2022-09-02T16:31:04.230Z,14.51
2022-09-02T16:34:20.817Z,14.32
2022-09-02T16:37:25.779Z,14.22
2022-09-02T16:40:30.684Z,14.13
2022-09-02T16:43:36.498Z,14.04
2022-09-02T16:46:41.798Z,14.17
2022-09-02T16:49:47.178Z,14.21
2022-09-02T16:52:51.918Z,14.13
2022-09-02T16:55:56.687Z,14.31
2022-09-02T16:59:03.759Z,14.39
2022-09-02T17:02:08.732Z,14.13
2022-09-02T17:05:15.278Z,13.92
2022-09-02T17:08:19.944Z,13.98
2022-09-02T17:11:33.927Z,13.60
2022-09-02T17:14:38.778Z,13.65
2022-09-02T17:17:43.664Z,13.99
2022-09-02T17:20:48.193Z,14.10
2022-09-02T17:23:53.841Z,14.19
2022-09-02T17:26:58.712Z,13.85
2022-09-02T17:30:03.715Z,13.98
2022-09-02T17:33:08.517Z,14.08
2022-09-02T17:36:13.240Z,13.99
2022-09-02T17:39:19.790Z,13.89
2022-09-02T17:42:24.832Z,13.88
2022-09-02T17:45:29.559Z,13.88
2022-09-02T17:48:45.073Z,13.21
2022-09-02T17:52:00.919Z,13.52
2022-09-02T17:55:05.844Z,13.43
2022-09-02T17:58:19.430Z,13.54
2022-09-02T18:01:28.093Z,13.85
2022-09-02T18:04:54.682Z,13.84
2022-09-02T18:08:04.127Z,14.04
2022-09-02T18:11:09.025Z,14.11
2022-09-02T18:14:35.913Z,13.99
2022-09-02T18:17:51.012Z,13.41
2022-09-02T18:21:28.525Z,13.92
2022-09-02T18:24:41.014Z,14.03
2022-09-02T18:28:00.763Z,13.94
2022-09-02T18:31:17.169Z,13.53
2022-09-02T18:34:33.235Z,13.82
2022-09-02T18:37:53.023Z,13.97
2022-09-02T18:41:14.583Z,13.41
2022-09-02T18:44:49.536Z,13.57
2022-09-02T18:48:05.026Z,13.35
2022-09-02T18:51:25.188Z,13.68
2022-09-02T18:54:45.203Z,13.98
2022-09-02T18:58:00.087Z,13.74
2022-09-02T19:01:38.770Z,13.76
2022-09-02T19:04:43.517Z,13.66
2022-09-02T19:08:07.760Z,13.74
2022-09-02T19:11:15.178Z,13.88
2022-09-02T19:14:32.125Z,13.77
2022-09-02T19:17:37.832Z,13.52
2022-09-02T19:20:42.908Z,13.36
2022-09-02T19:23:49.206Z,13.80
2022-09-02T19:27:04.916Z,13.72
2022-09-02T19:30:19.492Z,13.67
2022-09-02T19:33:24.438Z,13.39
2022-09-02T19:36:31.562Z,13.53
2022-09-02T19:39:36.660Z,13.80
2022-09-02T19:42:41.426Z,13.65
2022-09-02T19:45:48.305Z,13.89
2022-09-02T19:48:53.461Z,13.63
2022-09-02T19:51:58.474Z,13.37
2022-09-02T19:55:04.365Z,13.47
2022-09-02T19:58:08.936Z,13.10
2022-09-02T20:01:13.751Z,13.28
2022-09-02T20:04:19.535Z,12.90
2022-09-02T20:07:24.099Z,12.83
2022-09-02T20:10:30.050Z,12.81
2022-09-02T20:13:40.740Z,12.96
2022-09-02T20:16:46.207Z,12.54
2022-09-02T20:19:51.973Z,12.77
2022-09-02T20:22:56.697Z,12.53
2022-09-02T20:26:29.947Z,12.44
2022-09-02T20:29:57.648Z,12.50
2022-09-02T20:33:02.316Z,12.70
2022-09-02T20:36:33.568Z,12.69
2022-09-02T20:40:06.518Z,13.07
2022-09-02T20:43:35.936Z,12.84
2022-09-02T20:47:09.702Z,12.94
2022-09-02T20:50:34.485Z,12.53
2022-09-02T20:54:00.947Z,13.10
2022-09-02T20:57:27.611Z,13.01
2022-09-02T21:00:32.269Z,12.75
2022-09-02T21:03:52.428Z,12.86
2022-09-02T21:07:23.143Z,13.27
2022-09-02T21:10:44.477Z,13.03
2022-09-02T21:14:05.985Z,13.67
2022-09-02T21:17:19.054Z,14.11
2022-09-02T21:21:10.814Z,14.00
2022-09-02T21:24:25.049Z,13.60
2022-09-02T21:27:57.009Z,13.73
2022-09-02T21:31:15.716Z,14.01
2022-09-02T21:34:54.911Z,15.10
2022-09-02T21:38:16.445Z,15.50
2022-09-02T21:42:02.470Z,17.61
2022-09-02T21:45:31.317Z,18.19
2022-09-02T21:48:52.434Z,19.71
2022-09-02T21:52:27.845Z,20.65
2022-09-02T21:55:36.297Z,21.31
2022-09-02T21:59:08.776Z,22.27
2022-09-02T22:02:32.652Z,23.03
2022-09-02T22:06:12.939Z,22.53
2022-09-02T22:09:31.594Z,23.56
2022-09-02T22:12:42.281Z,23.16
2022-09-02T22:16:15.832Z,23.54
2022-09-02T22:19:21.813Z,23.55
2022-09-02T22:22:36.108Z,22.55
2022-09-02T22:25:42.014Z,21.32
2022-09-02T22:28:51.443Z,21.04
2022-09-02T22:32:00.821Z,20.35
2022-09-02T22:35:27.320Z,19.48
2022-09-02T22:38:42.948Z,19.40
2022-09-02T22:41:47.562Z,18.87
2022-09-02T22:45:31.080Z,18.76
2022-09-02T22:49:01.366Z,19.05
2022-09-02T22:52:44.863Z,19.02
2022-09-02T22:55:57.477Z,18.64
2022-09-02T22:59:10.455Z,18.23
2022-09-02T23:02:25.071Z,18.01
2022-09-02T23:06:02.009Z,17.84
2022-09-02T23:09:12.341Z,17.54
2022-09-02T23:12:33.150Z,18.08
2022-09-02T23:16:12.053Z,17.33
2022-09-02T23:19:44.526Z,17.48
2022-09-02T23:23:17.332Z,17.24
2022-09-02T23:26:48.635Z,17.25
2022-09-02T23:29:55.737Z,17.02
2022-09-02T23:33:18.601Z,17.21
2022-09-02T23:36:35.990Z,17.81
2022-09-02T23:39:58.941Z,17.59
2022-09-02T23:43:04.012Z,17.65
2022-09-02T23:46:46.196Z,17.56
2022-09-02T23:50:12.969Z,17.46
2022-09-02T23:53:24.857Z,17.63
2022-09-02T23:56:47.586Z,17.23
